sensor_id;sensor_type;location;lat;lon;timestamp;P1;durP1;ratioP1;P2;durP2;ratioP2
22697;SDS011;11516;51.612;7.510;2023-06-10T00:01:50;9.15;;;7.85;;
22697;SDS011;11516;51.612;7.510;2023-06-10T00:04:16;9.32;;;7.65;;
22697;SDS011;11516;51.612;7.510;2023-06-10T00:06:45;9.75;;;7.55;;
22697;SDS011;11516;51.612;7.510;2023-06-10T00:09:14;8.85;;;7.95;;
22697;SDS011;11516;51.612;7.510;2023-06-10T00:11:40;8.85;;;7.90;;
22697;SDS011;11516;51.612;7.510;2023-06-10T00:14:06;9.00;;;8.10;;
22697;SDS011;11516;51.612;7.510;2023-06-10T00:16:32;9.80;;;7.57;;
22697;SDS011;11516;51.612;7.510;2023-06-10T00:19:02;8.45;;;7.50;;
22697;SDS011;11516;51.612;7.510;2023-06-10T00:21:29;9.68;;;7.97;;
22697;SDS011;11516;51.612;7.510;2023-06-10T00:23:55;9.30;;;7.57;;
22697;SDS011;11516;51.612;7.510;2023-06-10T00:26:24;9.63;;;7.60;;
22697;SDS011;11516;51.612;7.510;2023-06-10T00:28:51;8.55;;;7.65;;
22697;SDS011;11516;51.612;7.510;2023-06-10T00:31:17;10.57;;;8.10;;
22697;SDS011;11516;51.612;7.510;2023-06-10T00:33:42;9.23;;;8.13;;
22697;SDS011;11516;51.612;7.510;2023-06-10T00:36:08;9.53;;;8.10;;
22697;SDS011;11516;51.612;7.510;2023-06-10T00:38:34;11.27;;;8.37;;
22697;SDS011;11516;51.612;7.510;2023-06-10T00:40:59;10.43;;;8.07;;
22697;SDS011;11516;51.612;7.510;2023-06-10T00:43:25;11.40;;;7.85;;
22697;SDS011;11516;51.612;7.510;2023-06-10T00:45:51;10.00;;;8.27;;
22697;SDS011;11516;51.612;7.510;2023-06-10T00:48:16;10.20;;;8.38;;
22697;SDS011;11516;51.612;7.510;2023-06-10T00:50:42;9.65;;;8.60;;
22697;SDS011;11516;51.612;7.510;2023-06-10T00:53:08;10.80;;;8.53;;
22697;SDS011;11516;51.612;7.510;2023-06-10T00:55:35;10.70;;;9.00;;
22697;SDS011;11516;51.612;7.510;2023-06-10T00:58:01;9.90;;;8.88;;
22697;SDS011;11516;51.612;7.510;2023-06-10T01:00:28;9.80;;;8.60;;
22697;SDS011;11516;51.612;7.510;2023-06-10T01:02:54;10.75;;;8.70;;
22697;SDS011;11516;51.612;7.510;2023-06-10T01:05:20;10.37;;;9.23;;
22697;SDS011;11516;51.612;7.510;2023-06-10T01:07:49;11.13;;;9.27;;
22697;SDS011;11516;51.612;7.510;2023-06-10T01:13:09;9.50;;;8.45;;
22697;SDS011;11516;51.612;7.510;2023-06-10T01:15:39;14.82;;;9.80;;
22697;SDS011;11516;51.612;7.510;2023-06-10T01:18:06;11.73;;;9.57;;
22697;SDS011;11516;51.612;7.510;2023-06-10T01:20:39;13.23;;;10.10;;
22697;SDS011;11516;51.612;7.510;2023-06-10T01:23:06;11.05;;;9.55;;
22697;SDS011;11516;51.612;7.510;2023-06-10T01:25:32;10.35;;;9.30;;
22697;SDS011;11516;51.612;7.510;2023-06-10T01:28:06;11.63;;;9.55;;
22697;SDS011;11516;51.612;7.510;2023-06-10T01:30:41;11.25;;;9.88;;
22697;SDS011;11516;51.612;7.510;2023-06-10T01:33:12;10.93;;;9.30;;
22697;SDS011;11516;51.612;7.510;2023-06-10T01:35:41;12.07;;;9.75;;
22697;SDS011;11516;51.612;7.510;2023-06-10T01:38:10;13.60;;;10.07;;
22697;SDS011;11516;51.612;7.510;2023-06-10T01:40:38;13.32;;;9.90;;
22697;SDS011;11516;51.612;7.510;2023-06-10T01:43:05;13.45;;;9.82;;
22697;SDS011;11516;51.612;7.510;2023-06-10T01:45:30;12.45;;;9.82;;
22697;SDS011;11516;51.612;7.510;2023-06-10T01:47:56;10.70;;;9.10;;
22697;SDS011;11516;51.612;7.510;2023-06-10T01:50:21;10.80;;;9.70;;
22697;SDS011;11516;51.612;7.510;2023-06-10T01:52:47;10.80;;;9.43;;
22697;SDS011;11516;51.612;7.510;2023-06-10T01:55:13;12.53;;;10.03;;
22697;SDS011;11516;51.612;7.510;2023-06-10T01:57:38;11.57;;;10.07;;
22697;SDS011;11516;51.612;7.510;2023-06-10T02:00:04;11.27;;;9.50;;
22697;SDS011;11516;51.612;7.510;2023-06-10T02:02:30;10.82;;;9.73;;
22697;SDS011;11516;51.612;7.510;2023-06-10T02:04:55;10.50;;;9.40;;
22697;SDS011;11516;51.612;7.510;2023-06-10T02:07:22;13.00;;;9.77;;
22697;SDS011;11516;51.612;7.510;2023-06-10T02:09:47;12.20;;;9.97;;
22697;SDS011;11516;51.612;7.510;2023-06-10T02:12:13;11.00;;;9.67;;
22697;SDS011;11516;51.612;7.510;2023-06-10T02:14:38;11.33;;;10.17;;
22697;SDS011;11516;51.612;7.510;2023-06-10T02:17:04;12.33;;;10.13;;
22697;SDS011;11516;51.612;7.510;2023-06-10T02:19:30;11.60;;;9.55;;
22697;SDS011;11516;51.612;7.510;2023-06-10T02:21:55;10.90;;;9.68;;
22697;SDS011;11516;51.612;7.510;2023-06-10T02:24:21;11.23;;;9.52;;
22697;SDS011;11516;51.612;7.510;2023-06-10T02:26:46;10.70;;;9.60;;
22697;SDS011;11516;51.612;7.510;2023-06-10T02:29:13;11.63;;;9.70;;
22697;SDS011;11516;51.612;7.510;2023-06-10T02:31:38;11.43;;;9.30;;
22697;SDS011;11516;51.612;7.510;2023-06-10T02:34:04;11.27;;;9.98;;
22697;SDS011;11516;51.612;7.510;2023-06-10T02:36:30;11.15;;;9.68;;
22697;SDS011;11516;51.612;7.510;2023-06-10T02:38:56;11.75;;;8.98;;
22697;SDS011;11516;51.612;7.510;2023-06-10T02:41:22;12.73;;;10.57;;
22697;SDS011;11516;51.612;7.510;2023-06-10T02:43:48;11.25;;;9.73;;
22697;SDS011;11516;51.612;7.510;2023-06-10T02:46:13;10.30;;;9.13;;
22697;SDS011;11516;51.612;7.510;2023-06-10T02:48:42;10.98;;;9.52;;
22697;SDS011;11516;51.612;7.510;2023-06-10T02:51:11;11.77;;;9.45;;
22697;SDS011;11516;51.612;7.510;2023-06-10T02:53:37;12.03;;;10.10;;
22697;SDS011;11516;51.612;7.510;2023-06-10T02:56:03;12.15;;;9.52;;
22697;SDS011;11516;51.612;7.510;2023-06-10T02:58:28;13.13;;;9.50;;
22697;SDS011;11516;51.612;7.510;2023-06-10T03:00:54;10.70;;;9.10;;
22697;SDS011;11516;51.612;7.510;2023-06-10T03:03:20;10.80;;;9.25;;
22697;SDS011;11516;51.612;7.510;2023-06-10T03:05:47;10.63;;;9.52;;
22697;SDS011;11516;51.612;7.510;2023-06-10T03:08:13;10.37;;;9.27;;
22697;SDS011;11516;51.612;7.510;2023-06-10T03:10:38;10.77;;;9.17;;
22697;SDS011;11516;51.612;7.510;2023-06-10T03:13:04;11.40;;;8.67;;
22697;SDS011;11516;51.612;7.510;2023-06-10T03:15:30;12.23;;;8.55;;
22697;SDS011;11516;51.612;7.510;2023-06-10T03:17:57;11.02;;;9.05;;
22697;SDS011;11516;51.612;7.510;2023-06-10T03:20:27;10.43;;;8.70;;
22697;SDS011;11516;51.612;7.510;2023-06-10T03:22:53;11.35;;;8.57;;
22697;SDS011;11516;51.612;7.510;2023-06-10T03:25:19;11.48;;;8.68;;
22697;SDS011;11516;51.612;7.510;2023-06-10T03:27:45;10.20;;;8.02;;
22697;SDS011;11516;51.612;7.510;2023-06-10T03:30:12;11.95;;;7.95;;
22697;SDS011;11516;51.612;7.510;2023-06-10T03:32:38;10.63;;;7.40;;
22697;SDS011;11516;51.612;7.510;2023-06-10T03:35:06;11.93;;;7.67;;
22697;SDS011;11516;51.612;7.510;2023-06-10T03:37:32;12.02;;;7.45;;
22697;SDS011;11516;51.612;7.510;2023-06-10T03:39:57;9.40;;;7.37;;
22697;SDS011;11516;51.612;7.510;2023-06-10T03:42:23;11.93;;;7.70;;
22697;SDS011;11516;51.612;7.510;2023-06-10T03:44:48;10.00;;;7.57;;
22697;SDS011;11516;51.612;7.510;2023-06-10T03:47:14;9.63;;;7.20;;
22697;SDS011;11516;51.612;7.510;2023-06-10T03:49:39;10.43;;;7.30;;
22697;SDS011;11516;51.612;7.510;2023-06-10T03:52:05;8.47;;;6.50;;
22697;SDS011;11516;51.612;7.510;2023-06-10T03:54:31;9.88;;;7.60;;
22697;SDS011;11516;51.612;7.510;2023-06-10T03:56:59;12.20;;;7.70;;
22697;SDS011;11516;51.612;7.510;2023-06-10T03:59:25;9.95;;;7.18;;
22697;SDS011;11516;51.612;7.510;2023-06-10T04:01:50;8.73;;;6.95;;
22697;SDS011;11516;51.612;7.510;2023-06-10T04:04:16;9.50;;;7.20;;
22697;SDS011;11516;51.612;7.510;2023-06-10T04:06:42;11.55;;;7.07;;
22697;SDS011;11516;51.612;7.510;2023-06-10T04:09:08;9.68;;;6.93;;
22697;SDS011;11516;51.612;7.510;2023-06-10T04:11:35;9.70;;;7.10;;
22697;SDS011;11516;51.612;7.510;2023-06-10T04:14:01;9.88;;;7.20;;
22697;SDS011;11516;51.612;7.510;2023-06-10T04:16:27;9.20;;;6.57;;
22697;SDS011;11516;51.612;7.510;2023-06-10T04:18:52;10.98;;;6.97;;
22697;SDS011;11516;51.612;7.510;2023-06-10T04:21:18;8.37;;;6.47;;
22697;SDS011;11516;51.612;7.510;2023-06-10T04:23:43;9.13;;;7.00;;
22697;SDS011;11516;51.612;7.510;2023-06-10T04:26:09;10.10;;;6.50;;
22697;SDS011;11516;51.612;7.510;2023-06-10T04:28:37;10.00;;;7.20;;
22697;SDS011;11516;51.612;7.510;2023-06-10T04:31:02;8.60;;;6.93;;
22697;SDS011;11516;51.612;7.510;2023-06-10T04:33:29;8.70;;;7.10;;
22697;SDS011;11516;51.612;7.510;2023-06-10T04:35:55;8.52;;;7.20;;
22697;SDS011;11516;51.612;7.510;2023-06-10T04:38:21;9.77;;;6.93;;
22697;SDS011;11516;51.612;7.510;2023-06-10T04:40:46;8.80;;;7.00;;
22697;SDS011;11516;51.612;7.510;2023-06-10T04:43:12;9.27;;;6.65;;
22697;SDS011;11516;51.612;7.510;2023-06-10T04:45:38;10.03;;;7.10;;
22697;SDS011;11516;51.612;7.510;2023-06-10T04:48:04;9.03;;;6.87;;
22697;SDS011;11516;51.612;7.510;2023-06-10T04:50:30;10.43;;;6.75;;
22697;SDS011;11516;51.612;7.510;2023-06-10T04:52:58;12.15;;;7.13;;
22697;SDS011;11516;51.612;7.510;2023-06-10T04:55:23;9.77;;;6.93;;
22697;SDS011;11516;51.612;7.510;2023-06-10T04:57:49;8.63;;;6.53;;
22697;SDS011;11516;51.612;7.510;2023-06-10T05:00:15;10.75;;;7.00;;
22697;SDS011;11516;51.612;7.510;2023-06-10T05:02:41;8.03;;;6.80;;
22697;SDS011;11516;51.612;7.510;2023-06-10T05:05:06;8.27;;;6.20;;
22697;SDS011;11516;51.612;7.510;2023-06-10T05:07:32;10.30;;;6.83;;
22697;SDS011;11516;51.612;7.510;2023-06-10T05:09:57;9.30;;;6.20;;
22697;SDS011;11516;51.612;7.510;2023-06-10T05:12:23;8.63;;;6.30;;
22697;SDS011;11516;51.612;7.510;2023-06-10T05:14:49;10.52;;;6.30;;
22697;SDS011;11516;51.612;7.510;2023-06-10T05:17:15;8.87;;;6.03;;
22697;SDS011;11516;51.612;7.510;2023-06-10T05:19:40;10.27;;;6.20;;
22697;SDS011;11516;51.612;7.510;2023-06-10T05:22:08;8.15;;;5.93;;
22697;SDS011;11516;51.612;7.510;2023-06-10T05:24:33;9.10;;;6.13;;
22697;SDS011;11516;51.612;7.510;2023-06-10T05:26:59;7.35;;;5.70;;
22697;SDS011;11516;51.612;7.510;2023-06-10T05:29:24;7.85;;;5.50;;
22697;SDS011;11516;51.612;7.510;2023-06-10T05:31:50;8.70;;;5.55;;
22697;SDS011;11516;51.612;7.510;2023-06-10T05:34:16;6.80;;;5.40;;
22697;SDS011;11516;51.612;7.510;2023-06-10T05:36:42;8.23;;;5.60;;
22697;SDS011;11516;51.612;7.510;2023-06-10T05:39:09;10.27;;;5.75;;
22697;SDS011;11516;51.612;7.510;2023-06-10T05:41:35;10.50;;;5.53;;
22697;SDS011;11516;51.612;7.510;2023-06-10T05:44:00;8.32;;;5.30;;
22697;SDS011;11516;51.612;7.510;2023-06-10T05:46:26;8.27;;;5.93;;
22697;SDS011;11516;51.612;7.510;2023-06-10T05:48:52;9.32;;;5.60;;
22697;SDS011;11516;51.612;7.510;2023-06-10T05:51:17;7.20;;;5.45;;
22697;SDS011;11516;51.612;7.510;2023-06-10T05:53:43;7.43;;;5.32;;
22697;SDS011;11516;51.612;7.510;2023-06-10T05:56:08;9.18;;;5.22;;
22697;SDS011;11516;51.612;7.510;2023-06-10T05:58:34;8.25;;;5.32;;
22697;SDS011;11516;51.612;7.510;2023-06-10T06:00:59;7.90;;;5.30;;
22697;SDS011;11516;51.612;7.510;2023-06-10T06:03:25;9.80;;;5.35;;
22697;SDS011;11516;51.612;7.510;2023-06-10T06:05:52;5.88;;;5.07;;
22697;SDS011;11516;51.612;7.510;2023-06-10T06:08:17;7.37;;;5.17;;
22697;SDS011;11516;51.612;7.510;2023-06-10T06:10:44;6.97;;;4.80;;
22697;SDS011;11516;51.612;7.510;2023-06-10T06:13:10;8.40;;;5.15;;
22697;SDS011;11516;51.612;7.510;2023-06-10T06:15:35;6.13;;;5.00;;
22697;SDS011;11516;51.612;7.510;2023-06-10T06:18:01;7.60;;;4.77;;
22697;SDS011;11516;51.612;7.510;2023-06-10T06:20:27;8.30;;;5.10;;
22697;SDS011;11516;51.612;7.510;2023-06-10T06:22:52;7.63;;;4.70;;
22697;SDS011;11516;51.612;7.510;2023-06-10T06:25:18;6.23;;;4.53;;
22697;SDS011;11516;51.612;7.510;2023-06-10T06:27:43;7.53;;;4.70;;
22697;SDS011;11516;51.612;7.510;2023-06-10T06:30:09;6.75;;;4.75;;
22697;SDS011;11516;51.612;7.510;2023-06-10T06:32:35;6.68;;;4.75;;
22697;SDS011;11516;51.612;7.510;2023-06-10T06:35:00;6.63;;;4.80;;
22697;SDS011;11516;51.612;7.510;2023-06-10T06:37:26;7.90;;;5.07;;
22697;SDS011;11516;51.612;7.510;2023-06-10T06:39:52;7.23;;;4.90;;
22697;SDS011;11516;51.612;7.510;2023-06-10T06:42:19;8.65;;;4.78;;
22697;SDS011;11516;51.612;7.510;2023-06-10T06:44:45;6.75;;;4.65;;
22697;SDS011;11516;51.612;7.510;2023-06-10T06:47:11;5.85;;;4.28;;
22697;SDS011;11516;51.612;7.510;2023-06-10T06:49:37;4.67;;;4.00;;
22697;SDS011;11516;51.612;7.510;2023-06-10T06:52:03;6.07;;;4.37;;
22697;SDS011;11516;51.612;7.510;2023-06-10T06:54:29;8.15;;;4.70;;
22697;SDS011;11516;51.612;7.510;2023-06-10T06:56:55;8.02;;;4.78;;
22697;SDS011;11516;51.612;7.510;2023-06-10T06:59:21;6.40;;;4.30;;
22697;SDS011;11516;51.612;7.510;2023-06-10T07:01:46;6.28;;;4.40;;
22697;SDS011;11516;51.612;7.510;2023-06-10T07:04:14;6.40;;;4.50;;
22697;SDS011;11516;51.612;7.510;2023-06-10T07:06:40;5.55;;;4.38;;
22697;SDS011;11516;51.612;7.510;2023-06-10T07:09:06;7.97;;;4.43;;
22697;SDS011;11516;51.612;7.510;2023-06-10T07:11:33;7.63;;;4.70;;
22697;SDS011;11516;51.612;7.510;2023-06-10T07:13:59;5.33;;;4.00;;
22697;SDS011;11516;51.612;7.510;2023-06-10T07:16:25;5.93;;;4.20;;
22697;SDS011;11516;51.612;7.510;2023-06-10T07:18:50;6.63;;;4.10;;
22697;SDS011;11516;51.612;7.510;2023-06-10T07:21:17;7.97;;;4.25;;
22697;SDS011;11516;51.612;7.510;2023-06-10T07:23:43;6.27;;;4.27;;
22697;SDS011;11516;51.612;7.510;2023-06-10T07:26:09;6.13;;;3.80;;
22697;SDS011;11516;51.612;7.510;2023-06-10T07:28:36;4.85;;;4.05;;
22697;SDS011;11516;51.612;7.510;2023-06-10T07:31:02;5.78;;;3.88;;
22697;SDS011;11516;51.612;7.510;2023-06-10T07:33:28;5.35;;;4.50;;
22697;SDS011;11516;51.612;7.510;2023-06-10T07:35:54;6.80;;;4.10;;
22697;SDS011;11516;51.612;7.510;2023-06-10T07:38:20;6.87;;;3.90;;
22697;SDS011;11516;51.612;7.510;2023-06-10T07:40:45;6.50;;;4.40;;
22697;SDS011;11516;51.612;7.510;2023-06-10T07:43:11;5.37;;;3.90;;
22697;SDS011;11516;51.612;7.510;2023-06-10T07:45:36;5.17;;;3.80;;
22697;SDS011;11516;51.612;7.510;2023-06-10T07:48:04;5.35;;;4.18;;
22697;SDS011;11516;51.612;7.510;2023-06-10T07:50:30;6.28;;;4.07;;
22697;SDS011;11516;51.612;7.510;2023-06-10T07:52:55;5.60;;;4.38;;
22697;SDS011;11516;51.612;7.510;2023-06-10T07:55:21;7.43;;;5.13;;
22697;SDS011;11516;51.612;7.510;2023-06-10T07:57:47;7.32;;;3.85;;
22697;SDS011;11516;51.612;7.510;2023-06-10T08:00:12;7.10;;;4.13;;
22697;SDS011;11516;51.612;7.510;2023-06-10T08:02:38;5.53;;;3.80;;
22697;SDS011;11516;51.612;7.510;2023-06-10T08:05:04;4.25;;;3.60;;
22697;SDS011;11516;51.612;7.510;2023-06-10T08:07:30;6.88;;;3.80;;
22697;SDS011;11516;51.612;7.510;2023-06-10T08:09:56;6.90;;;4.22;;
22697;SDS011;11516;51.612;7.510;2023-06-10T08:12:22;6.88;;;4.15;;
22697;SDS011;11516;51.612;7.510;2023-06-10T08:14:48;6.50;;;3.83;;
22697;SDS011;11516;51.612;7.510;2023-06-10T08:17:13;6.37;;;4.53;;
22697;SDS011;11516;51.612;7.510;2023-06-10T08:19:39;5.13;;;4.07;;
22697;SDS011;11516;51.612;7.510;2023-06-10T08:22:04;7.00;;;4.10;;
22697;SDS011;11516;51.612;7.510;2023-06-10T08:24:30;5.80;;;4.13;;
22697;SDS011;11516;51.612;7.510;2023-06-10T08:26:56;6.10;;;3.73;;
22697;SDS011;11516;51.612;7.510;2023-06-10T08:29:22;5.60;;;3.77;;
22697;SDS011;11516;51.612;7.510;2023-06-10T08:31:48;6.55;;;4.70;;
22697;SDS011;11516;51.612;7.510;2023-06-10T08:34:13;7.87;;;3.87;;
22697;SDS011;11516;51.612;7.510;2023-06-10T08:36:39;5.67;;;4.30;;
22697;SDS011;11516;51.612;7.510;2023-06-10T08:39:04;7.63;;;5.60;;
22697;SDS011;11516;51.612;7.510;2023-06-10T08:41:30;6.73;;;4.87;;
22697;SDS011;11516;51.612;7.510;2023-06-10T08:44:12;8.60;;;4.53;;
22697;SDS011;11516;51.612;7.510;2023-06-10T08:46:45;5.90;;;3.80;;
22697;SDS011;11516;51.612;7.510;2023-06-10T08:49:15;6.40;;;3.83;;
22697;SDS011;11516;51.612;7.510;2023-06-10T08:51:45;5.90;;;4.18;;
22697;SDS011;11516;51.612;7.510;2023-06-10T08:54:15;5.78;;;3.75;;
22697;SDS011;11516;51.612;7.510;2023-06-10T08:56:45;6.97;;;4.00;;
22697;SDS011;11516;51.612;7.510;2023-06-10T08:59:14;8.13;;;4.10;;
22697;SDS011;11516;51.612;7.510;2023-06-10T09:01:41;5.93;;;4.15;;
22697;SDS011;11516;51.612;7.510;2023-06-10T09:04:07;7.82;;;4.13;;
22697;SDS011;11516;51.612;7.510;2023-06-10T09:06:33;6.78;;;4.82;;
22697;SDS011;11516;51.612;7.510;2023-06-10T09:09:00;5.75;;;4.15;;
22697;SDS011;11516;51.612;7.510;2023-06-10T09:11:26;6.43;;;4.27;;
22697;SDS011;11516;51.612;7.510;2023-06-10T09:13:52;6.00;;;4.37;;
22697;SDS011;11516;51.612;7.510;2023-06-10T09:16:18;6.13;;;4.13;;
22697;SDS011;11516;51.612;7.510;2023-06-10T09:18:44;5.43;;;4.00;;
22697;SDS011;11516;51.612;7.510;2023-06-10T09:21:10;6.07;;;4.45;;
22697;SDS011;11516;51.612;7.510;2023-06-10T09:23:36;7.23;;;4.40;;
22697;SDS011;11516;51.612;7.510;2023-06-10T09:26:02;6.90;;;4.35;;
22697;SDS011;11516;51.612;7.510;2023-06-10T09:28:33;5.10;;;3.97;;
22697;SDS011;11516;51.612;7.510;2023-06-10T09:31:05;5.82;;;4.50;;
22697;SDS011;11516;51.612;7.510;2023-06-10T09:33:32;6.65;;;4.18;;
22697;SDS011;11516;51.612;7.510;2023-06-10T09:36:01;5.22;;;4.10;;
22697;SDS011;11516;51.612;7.510;2023-06-10T09:38:31;7.22;;;4.00;;
22697;SDS011;11516;51.612;7.510;2023-06-10T09:40:58;6.90;;;4.17;;
22697;SDS011;11516;51.612;7.510;2023-06-10T09:43:38;6.87;;;4.67;;
22697;SDS011;11516;51.612;7.510;2023-06-10T09:46:15;8.07;;;4.43;;
22697;SDS011;11516;51.612;7.510;2023-06-10T09:48:45;4.95;;;4.00;;
22697;SDS011;11516;51.612;7.510;2023-06-10T09:51:15;5.88;;;4.25;;
22697;SDS011;11516;51.612;7.510;2023-06-10T09:53:47;5.35;;;4.38;;
22697;SDS011;11516;51.612;7.510;2023-06-10T09:56:16;7.70;;;5.20;;
22697;SDS011;11516;51.612;7.510;2023-06-10T09:58:42;6.70;;;4.90;;
22697;SDS011;11516;51.612;7.510;2023-06-10T10:01:12;7.57;;;4.35;;
22697;SDS011;11516;51.612;7.510;2023-06-10T10:06:12;6.75;;;4.28;;
22697;SDS011;11516;51.612;7.510;2023-06-10T10:08:40;6.82;;;4.40;;
22697;SDS011;11516;51.612;7.510;2023-06-10T10:11:05;6.82;;;4.68;;
22697;SDS011;11516;51.612;7.510;2023-06-10T10:13:32;6.88;;;4.88;;
22697;SDS011;11516;51.612;7.510;2023-06-10T10:16:00;7.72;;;5.28;;
22697;SDS011;11516;51.612;7.510;2023-06-10T10:18:29;11.27;;;6.32;;
22697;SDS011;11516;51.612;7.510;2023-06-10T10:20:56;9.03;;;5.60;;
22697;SDS011;11516;51.612;7.510;2023-06-10T10:23:29;6.75;;;4.40;;
22697;SDS011;11516;51.612;7.510;2023-06-10T10:26:00;7.03;;;4.18;;
22697;SDS011;11516;51.612;7.510;2023-06-10T10:28:31;7.18;;;4.78;;
22697;SDS011;11516;51.612;7.510;2023-06-10T10:31:08;7.03;;;4.50;;
22697;SDS011;11516;51.612;7.510;2023-06-10T10:33:45;5.68;;;4.80;;
22697;SDS011;11516;51.612;7.510;2023-06-10T10:36:19;6.60;;;4.90;;
22697;SDS011;11516;51.612;7.510;2023-06-10T10:38:45;7.10;;;4.40;;
22697;SDS011;11516;51.612;7.510;2023-06-10T10:41:12;7.78;;;4.57;;
22697;SDS011;11516;51.612;7.510;2023-06-10T10:43:39;5.88;;;4.68;;
22697;SDS011;11516;51.612;7.510;2023-06-10T10:46:08;8.55;;;4.97;;
22697;SDS011;11516;51.612;7.510;2023-06-10T10:48:38;7.03;;;4.37;;
22697;SDS011;11516;51.612;7.510;2023-06-10T10:51:06;5.10;;;4.60;;
22697;SDS011;11516;51.612;7.510;2023-06-10T10:53:32;5.47;;;4.63;;
22697;SDS011;11516;51.612;7.510;2023-06-10T10:56:04;9.02;;;4.65;;
22697;SDS011;11516;51.612;7.510;2023-06-10T10:58:32;6.13;;;4.38;;
22697;SDS011;11516;51.612;7.510;2023-06-10T11:00:57;6.25;;;4.60;;
22697;SDS011;11516;51.612;7.510;2023-06-10T11:03:24;7.47;;;4.80;;
22697;SDS011;11516;51.612;7.510;2023-06-10T11:05:53;6.07;;;4.60;;
22697;SDS011;11516;51.612;7.510;2023-06-10T11:10:53;8.20;;;4.65;;
22697;SDS011;11516;51.612;7.510;2023-06-10T11:13:19;5.83;;;4.27;;
22697;SDS011;11516;51.612;7.510;2023-06-10T11:15:47;6.70;;;5.05;;
22697;SDS011;11516;51.612;7.510;2023-06-10T11:18:27;6.05;;;4.43;;
22697;SDS011;11516;51.612;7.510;2023-06-10T11:28:40;6.70;;;4.30;;
22697;SDS011;11516;51.612;7.510;2023-06-10T11:31:08;7.35;;;4.30;;
22697;SDS011;11516;51.612;7.510;2023-06-10T11:33:44;5.60;;;4.15;;
22697;SDS011;11516;51.612;7.510;2023-06-10T11:36:11;5.88;;;4.53;;
22697;SDS011;11516;51.612;7.510;2023-06-10T11:38:36;8.13;;;4.30;;
22697;SDS011;11516;51.612;7.510;2023-06-10T11:41:02;6.80;;;4.50;;
22697;SDS011;11516;51.612;7.510;2023-06-10T11:43:27;5.73;;;4.23;;
22697;SDS011;11516;51.612;7.510;2023-06-10T11:45:54;6.63;;;4.30;;
22697;SDS011;11516;51.612;7.510;2023-06-10T11:48:23;5.18;;;4.10;;
22697;SDS011;11516;51.612;7.510;2023-06-10T11:50:48;6.30;;;4.40;;
22697;SDS011;11516;51.612;7.510;2023-06-10T11:53:14;5.82;;;4.38;;
22697;SDS011;11516;51.612;7.510;2023-06-10T11:55:47;4.93;;;4.30;;
22697;SDS011;11516;51.612;7.510;2023-06-10T11:58:17;5.95;;;4.10;;
22697;SDS011;11516;51.612;7.510;2023-06-10T12:00:51;8.90;;;4.35;;
22697;SDS011;11516;51.612;7.510;2023-06-10T12:03:18;5.30;;;4.30;;
22697;SDS011;11516;51.612;7.510;2023-06-10T12:05:57;5.70;;;4.20;;
22697;SDS011;11516;51.612;7.510;2023-06-10T12:08:25;8.98;;;4.80;;
22697;SDS011;11516;51.612;7.510;2023-06-10T12:10:51;5.53;;;4.10;;
22697;SDS011;11516;51.612;7.510;2023-06-10T12:13:17;6.30;;;4.78;;
22697;SDS011;11516;51.612;7.510;2023-06-10T12:15:43;4.97;;;4.10;;
22697;SDS011;11516;51.612;7.510;2023-06-10T12:18:15;5.57;;;4.15;;
22697;SDS011;11516;51.612;7.510;2023-06-10T12:20:44;6.10;;;4.20;;
22697;SDS011;11516;51.612;7.510;2023-06-10T12:23:10;5.32;;;4.65;;
22697;SDS011;11516;51.612;7.510;2023-06-10T12:25:37;6.32;;;4.57;;
22697;SDS011;11516;51.612;7.510;2023-06-10T12:28:03;5.78;;;4.78;;
22697;SDS011;11516;51.612;7.510;2023-06-10T12:30:30;10.30;;;5.47;;
22697;SDS011;11516;51.612;7.510;2023-06-10T12:32:57;5.28;;;4.60;;
22697;SDS011;11516;51.612;7.510;2023-06-10T12:35:24;5.40;;;4.32;;
22697;SDS011;11516;51.612;7.510;2023-06-10T12:38:00;5.93;;;4.60;;
22697;SDS011;11516;51.612;7.510;2023-06-10T12:40:30;5.00;;;4.50;;
22697;SDS011;11516;51.612;7.510;2023-06-10T12:42:58;5.93;;;4.32;;
22697;SDS011;11516;51.612;7.510;2023-06-10T12:45:27;4.88;;;4.43;;
22697;SDS011;11516;51.612;7.510;2023-06-10T12:48:04;6.45;;;4.30;;
22697;SDS011;11516;51.612;7.510;2023-06-10T12:50:34;6.20;;;4.70;;
22697;SDS011;11516;51.612;7.510;2023-06-10T12:53:04;6.90;;;4.50;;
22697;SDS011;11516;51.612;7.510;2023-06-10T12:55:30;5.97;;;4.47;;
22697;SDS011;11516;51.612;7.510;2023-06-10T12:57:57;6.80;;;4.55;;
22697;SDS011;11516;51.612;7.510;2023-06-10T13:00:23;6.45;;;4.43;;
22697;SDS011;11516;51.612;7.510;2023-06-10T13:02:54;4.60;;;4.20;;
22697;SDS011;11516;51.612;7.510;2023-06-10T13:05:25;4.85;;;4.35;;
22697;SDS011;11516;51.612;7.510;2023-06-10T13:07:51;5.90;;;4.40;;
22697;SDS011;11516;51.612;7.510;2023-06-10T13:10:17;6.18;;;4.38;;
22697;SDS011;11516;51.612;7.510;2023-06-10T13:12:43;6.63;;;4.38;;
22697;SDS011;11516;51.612;7.510;2023-06-10T13:15:09;5.60;;;4.50;;
22697;SDS011;11516;51.612;7.510;2023-06-10T13:17:35;5.75;;;4.03;;
22697;SDS011;11516;51.612;7.510;2023-06-10T13:20:02;5.78;;;4.78;;
22697;SDS011;11516;51.612;7.510;2023-06-10T13:22:30;6.10;;;4.45;;
22697;SDS011;11516;51.612;7.510;2023-06-10T13:24:58;6.73;;;4.60;;
22697;SDS011;11516;51.612;7.510;2023-06-10T13:27:24;4.65;;;4.15;;
22697;SDS011;11516;51.612;7.510;2023-06-10T13:29:50;5.25;;;4.28;;
22697;SDS011;11516;51.612;7.510;2023-06-10T13:32:15;5.07;;;4.40;;
22697;SDS011;11516;51.612;7.510;2023-06-10T13:34:41;7.10;;;4.40;;
22697;SDS011;11516;51.612;7.510;2023-06-10T13:37:06;5.30;;;4.70;;
22697;SDS011;11516;51.612;7.510;2023-06-10T13:39:32;7.83;;;5.97;;
22697;SDS011;11516;51.612;7.510;2023-06-10T13:41:57;4.93;;;4.20;;
22697;SDS011;11516;51.612;7.510;2023-06-10T13:44:23;5.30;;;4.60;;
22697;SDS011;11516;51.612;7.510;2023-06-10T13:46:49;5.75;;;4.25;;
22697;SDS011;11516;51.612;7.510;2023-06-10T13:49:14;6.03;;;4.40;;
22697;SDS011;11516;51.612;7.510;2023-06-10T13:51:40;5.83;;;4.43;;
22697;SDS011;11516;51.612;7.510;2023-06-10T13:54:05;6.30;;;4.18;;
22697;SDS011;11516;51.612;7.510;2023-06-10T13:56:31;5.83;;;4.20;;
22697;SDS011;11516;51.612;7.510;2023-06-10T13:58:58;5.70;;;4.28;;
22697;SDS011;11516;51.612;7.510;2023-06-10T14:01:24;5.57;;;4.13;;
22697;SDS011;11516;51.612;7.510;2023-06-10T14:03:50;5.68;;;4.38;;
22697;SDS011;11516;51.612;7.510;2023-06-10T14:06:15;4.63;;;4.23;;
22697;SDS011;11516;51.612;7.510;2023-06-10T14:08:44;6.35;;;4.13;;
22697;SDS011;11516;51.612;7.510;2023-06-10T14:11:10;6.15;;;4.20;;
22697;SDS011;11516;51.612;7.510;2023-06-10T14:13:36;6.20;;;4.43;;
22697;SDS011;11516;51.612;7.510;2023-06-10T14:16:03;6.90;;;4.63;;
22697;SDS011;11516;51.612;7.510;2023-06-10T14:18:29;8.40;;;4.50;;
22697;SDS011;11516;51.612;7.510;2023-06-10T14:20:55;7.50;;;4.30;;
22697;SDS011;11516;51.612;7.510;2023-06-10T14:23:20;8.32;;;4.32;;
22697;SDS011;11516;51.612;7.510;2023-06-10T14:25:46;11.40;;;4.97;;
22697;SDS011;11516;51.612;7.510;2023-06-10T14:28:12;8.02;;;4.32;;
22697;SDS011;11516;51.612;7.510;2023-06-10T14:30:37;5.43;;;4.10;;
22697;SDS011;11516;51.612;7.510;2023-06-10T14:33:03;7.40;;;4.45;;
22697;SDS011;11516;51.612;7.510;2023-06-10T14:35:28;5.93;;;3.97;;
22697;SDS011;11516;51.612;7.510;2023-06-10T14:37:54;5.43;;;4.23;;
22697;SDS011;11516;51.612;7.510;2023-06-10T14:40:19;8.40;;;4.50;;
22697;SDS011;11516;51.612;7.510;2023-06-10T14:42:49;6.57;;;4.53;;
22697;SDS011;11516;51.612;7.510;2023-06-10T14:45:15;4.63;;;4.03;;
22697;SDS011;11516;51.612;7.510;2023-06-10T14:47:41;5.10;;;4.10;;
22697;SDS011;11516;51.612;7.510;2023-06-10T14:50:10;6.50;;;4.25;;
22697;SDS011;11516;51.612;7.510;2023-06-10T14:52:35;6.30;;;4.30;;
22697;SDS011;11516;51.612;7.510;2023-06-10T14:55:03;6.50;;;4.27;;
22697;SDS011;11516;51.612;7.510;2023-06-10T14:57:29;5.88;;;4.20;;